Aviation Digital Data Service (ADDS)

Output produced by METARs form (1822 UTC 19 April 2019)
found at http://www.aviationweather.gov/metar/data/
 
Forecast for: RPMZ (ZAMBOANGA (CIV/A, PH)
Text: TAF RPMZ 191700Z 1918/2018 27006KT 9999 FEW017 SCT300
Forecast period: 1800 UTC 19 April 2019 to 1800 UTC 20 April 2019
Forecast type: FROM: standard forecast or significant change
Winds: from the W (270 degrees) at 7 MPH (6 knots; 3.1 m/s)
Visibility: 6 or more miles 10+ km)
Ceiling: at least 12,000 feet AGL
Clouds: few clouds at 1700 feet AGL
scattered clouds at 30000 feet AGL
Weather: no significant weather forecast for this period
Text: TEMPO 1918/1924 29003KT
Forecast period: 1800 UTC 19 April 2019 to 0000 UTC 20 April 2019
Forecast type: TEMPORARY: The following changes expected for less than half the time period
Winds: from the WNW (290 degrees) at 3 MPH (3 knots; 1.5 m/s)
Visibility: missing
Ceiling: unknown
Clouds: missing
Weather: no significant weather forecast for this period